sensor_id;sensor_type;location;lat;lon;timestamp;pressure;altitude;pressure_sealevel;temperature;humidity
70015;BME280;57358;51.094;6.760;2023-03-20T00:01:26;101454.31;;;8.14;100.00
70015;BME280;57358;51.094;6.760;2023-03-20T00:03:54;101356.50;;;7.62;100.00
70015;BME280;57358;51.094;6.760;2023-03-20T00:09:19;101396.03;;;7.81;100.00
70015;BME280;57358;51.094;6.760;2023-03-20T00:11:56;101458.63;;;8.15;100.00
70015;BME280;57358;51.094;6.760;2023-03-20T00:14:40;101391.13;;;7.70;100.00
70015;BME280;57358;51.094;6.760;2023-03-20T00:17:20;100844.66;;;4.50;100.00
70015;BME280;57358;51.094;6.760;2023-03-20T00:20:13;101464.59;;;8.20;100.00
70015;BME280;57358;51.094;6.760;2023-03-20T00:22:43;101481.25;;;8.16;100.00
70015;BME280;57358;51.094;6.760;2023-03-20T00:25:23;101473.34;;;8.17;100.00
70015;BME280;57358;51.094;6.760;2023-03-20T00:27:52;101412.66;;;7.78;100.00
70015;BME280;57358;51.094;6.760;2023-03-20T00:30:33;101477.03;;;8.12;100.00
70015;BME280;57358;51.094;6.760;2023-03-20T00:33:01;101380.28;;;7.54;100.00
70015;BME280;57358;51.094;6.760;2023-03-20T00:35:31;101474.34;;;8.13;100.00
70015;BME280;57358;51.094;6.760;2023-03-20T00:37:59;101476.22;;;8.10;100.00
70015;BME280;57358;51.094;6.760;2023-03-20T00:40:30;101498.16;;;8.04;100.00
70015;BME280;57358;51.094;6.760;2023-03-20T00:43:02;101471.56;;;7.90;100.00
70015;BME280;57358;51.094;6.760;2023-03-20T00:45:37;100872.84;;;4.29;100.00
70015;BME280;57358;51.094;6.760;2023-03-20T00:48:13;101479.22;;;7.96;100.00
70015;BME280;57358;51.094;6.760;2023-03-20T00:50:44;101342.13;;;7.17;100.00
70015;BME280;57358;51.094;6.760;2023-03-20T00:53:20;101423.38;;;7.69;100.00
70015;BME280;57358;51.094;6.760;2023-03-20T00:55:57;101329.25;;;7.11;100.00
70015;BME280;57358;51.094;6.760;2023-03-20T00:58:34;101476.47;;;8.01;100.00
70015;BME280;57358;51.094;6.760;2023-03-20T01:01:34;101394.06;;;7.57;100.00
70015;BME280;57358;51.094;6.760;2023-03-20T01:04:12;101474.75;;;7.99;100.00
70015;BME280;57358;51.094;6.760;2023-03-20T01:06:44;101462.63;;;7.97;100.00
70015;BME280;57358;51.094;6.760;2023-03-20T01:09:14;101452.41;;;7.89;100.00
70015;BME280;57358;51.094;6.760;2023-03-20T01:11:44;101380.72;;;7.37;100.00
70015;BME280;57358;51.094;6.760;2023-03-20T01:14:31;100473.44;;;1.95;100.00
70015;BME280;57358;51.094;6.760;2023-03-20T01:16:59;101184.81;;;6.18;100.00
70015;BME280;57358;51.094;6.760;2023-03-20T01:19:42;101390.19;;;7.10;100.00
70015;BME280;57358;51.094;6.760;2023-03-20T01:22:12;100988.34;;;4.91;100.00
70015;BME280;57358;51.094;6.760;2023-03-20T01:24:40;101459.78;;;7.75;100.00
70015;BME280;57358;51.094;6.760;2023-03-20T01:27:18;101461.53;;;7.74;100.00
70015;BME280;57358;51.094;6.760;2023-03-20T01:29:46;100572.66;;;1.94;100.00
70015;BME280;57358;51.094;6.760;2023-03-20T01:32:18;101288.66;;;6.68;100.00
70015;BME280;57358;51.094;6.760;2023-03-20T01:34:54;101447.22;;;7.56;100.00
70015;BME280;57358;51.094;6.760;2023-03-20T01:37:26;101459.63;;;7.50;100.00
70015;BME280;57358;51.094;6.760;2023-03-20T01:39:59;101130.66;;;5.60;100.00
70015;BME280;57358;51.094;6.760;2023-03-20T01:42:26;101052.97;;;5.09;100.00
70015;BME280;57358;51.094;6.760;2023-03-20T01:44:57;101439.03;;;7.37;100.00
70015;BME280;57358;51.094;6.760;2023-03-20T01:47:28;100994.97;;;4.67;100.00
70015;BME280;57358;51.094;6.760;2023-03-20T01:52:38;100881.31;;;3.98;100.00
70015;BME280;57358;51.094;6.760;2023-03-20T01:55:05;100674.31;;;2.51;100.00
70015;BME280;57358;51.094;6.760;2023-03-20T01:57:32;101334.84;;;6.64;100.00
70015;BME280;57358;51.094;6.760;2023-03-20T02:00:05;101447.25;;;7.24;100.00
70015;BME280;57358;51.094;6.760;2023-03-20T02:02:36;101431.22;;;7.03;100.00
70015;BME280;57358;51.094;6.760;2023-03-20T02:05:09;101415.22;;;6.83;100.00
70015;BME280;57358;51.094;6.760;2023-03-20T02:07:38;101449.50;;;7.03;100.00
70015;BME280;57358;51.094;6.760;2023-03-20T02:10:08;101432.69;;;6.79;100.00
70015;BME280;57358;51.094;6.760;2023-03-20T02:12:35;101346.41;;;6.16;100.00
70015;BME280;57358;51.094;6.760;2023-03-20T02:15:04;101413.25;;;6.56;100.00
70015;BME280;57358;51.094;6.760;2023-03-20T02:17:31;101458.06;;;6.74;100.00
70015;BME280;57358;51.094;6.760;2023-03-20T02:31:35;101433.97;;;6.25;100.00
70015;BME280;57358;51.094;6.760;2023-03-20T02:39:50;101347.44;;;5.69;100.00
70015;BME280;57358;51.094;6.760;2023-03-20T02:42:41;101448.53;;;6.35;100.00
70015;BME280;57358;51.094;6.760;2023-03-20T02:45:24;101406.34;;;6.18;100.00
70015;BME280;57358;51.094;6.760;2023-03-20T02:48:09;101396.31;;;5.99;100.00
70015;BME280;57358;51.094;6.760;2023-03-20T02:50:46;101261.81;;;5.14;100.00
70015;BME280;57358;51.094;6.760;2023-03-20T02:53:36;101416.22;;;6.04;100.00
70015;BME280;57358;51.094;6.760;2023-03-20T02:56:19;101475.38;;;6.39;100.00
70015;BME280;57358;51.094;6.760;2023-03-20T02:58:57;101478.72;;;6.46;100.00
70015;BME280;57358;51.094;6.760;2023-03-20T03:03:59;101474.22;;;6.51;100.00
70015;BME280;57358;51.094;6.760;2023-03-20T03:06:30;101427.25;;;6.15;100.00
70015;BME280;57358;51.094;6.760;2023-03-20T03:09:02;101479.47;;;6.49;100.00
70015;BME280;57358;51.094;6.760;2023-03-20T03:11:33;101386.00;;;5.93;100.00
70015;BME280;57358;51.094;6.760;2023-03-20T03:14:02;101462.25;;;6.44;100.00
70015;BME280;57358;51.094;6.760;2023-03-20T03:16:34;101421.03;;;6.21;100.00
70015;BME280;57358;51.094;6.760;2023-03-20T03:19:07;101478.44;;;6.56;100.00
70015;BME280;57358;51.094;6.760;2023-03-20T03:21:35;101377.00;;;6.08;100.00
70015;BME280;57358;51.094;6.760;2023-03-20T03:24:03;101447.38;;;6.47;100.00
70015;BME280;57358;51.094;6.760;2023-03-20T03:26:33;101393.22;;;6.21;100.00
70015;BME280;57358;51.094;6.760;2023-03-20T03:29:05;101135.22;;;4.74;100.00
70015;BME280;57358;51.094;6.760;2023-03-20T03:31:36;101437.88;;;6.45;100.00
70015;BME280;57358;51.094;6.760;2023-03-20T03:34:03;101401.25;;;6.12;100.00
70015;BME280;57358;51.094;6.760;2023-03-20T03:36:39;101428.84;;;6.21;100.00
70015;BME280;57358;51.094;6.760;2023-03-20T03:39:26;101463.25;;;6.36;100.00
70015;BME280;57358;51.094;6.760;2023-03-20T03:42:23;101366.44;;;5.74;100.00
70015;BME280;57358;51.094;6.760;2023-03-20T03:45:09;101405.94;;;5.96;100.00
70015;BME280;57358;51.094;6.760;2023-03-20T03:47:46;101454.09;;;6.18;100.00
70015;BME280;57358;51.094;6.760;2023-03-20T03:50:24;101481.22;;;6.50;100.00
70015;BME280;57358;51.094;6.760;2023-03-20T03:52:53;101474.34;;;6.46;100.00
70015;BME280;57358;51.094;6.760;2023-03-20T03:55:25;101461.66;;;6.31;100.00
70015;BME280;57358;51.094;6.760;2023-03-20T03:57:57;101485.56;;;6.50;100.00
70015;BME280;57358;51.094;6.760;2023-03-20T04:00:26;101345.63;;;5.74;100.00
70015;BME280;57358;51.094;6.760;2023-03-20T04:02:56;101478.56;;;6.52;100.00
70015;BME280;57358;51.094;6.760;2023-03-20T04:05:25;101390.09;;;6.05;100.00
70015;BME280;57358;51.094;6.760;2023-03-20T04:07:57;101454.22;;;6.51;100.00
70015;BME280;57358;51.094;6.760;2023-03-20T04:10:24;101396.06;;;6.12;100.00
70015;BME280;57358;51.094;6.760;2023-03-20T04:12:50;101414.94;;;6.22;100.00
70015;BME280;57358;51.094;6.760;2023-03-20T04:15:17;101435.53;;;6.34;100.00
70015;BME280;57358;51.094;6.760;2023-03-20T04:17:45;101469.78;;;6.56;100.00
70015;BME280;57358;51.094;6.760;2023-03-20T04:20:12;101461.97;;;6.56;100.00
70015;BME280;57358;51.094;6.760;2023-03-20T04:22:39;101188.59;;;4.91;100.00
70015;BME280;57358;51.094;6.760;2023-03-20T04:25:08;101396.09;;;6.09;100.00
70015;BME280;57358;51.094;6.760;2023-03-20T04:27:34;101468.19;;;6.49;100.00
70015;BME280;57358;51.094;6.760;2023-03-20T04:30:01;101368.69;;;5.89;100.00
70015;BME280;57358;51.094;6.760;2023-03-20T04:32:28;101356.69;;;5.84;100.00
70015;BME280;57358;51.094;6.760;2023-03-20T04:34:54;101383.44;;;5.92;100.00
70015;BME280;57358;51.094;6.760;2023-03-20T04:37:20;101374.03;;;5.85;100.00
70015;BME280;57358;51.094;6.760;2023-03-20T04:39:47;101429.75;;;6.19;100.00
70015;BME280;57358;51.094;6.760;2023-03-20T04:42:13;101375.81;;;5.81;100.00
70015;BME280;57358;51.094;6.760;2023-03-20T04:44:40;101418.72;;;6.07;100.00
70015;BME280;57358;51.094;6.760;2023-03-20T04:47:06;101445.56;;;6.12;100.00
70015;BME280;57358;51.094;6.760;2023-03-20T04:49:33;101460.00;;;6.27;100.00
70015;BME280;57358;51.094;6.760;2023-03-20T04:51:59;101261.16;;;5.05;100.00
70015;BME280;57358;51.094;6.760;2023-03-20T04:54:25;101468.88;;;6.18;100.00
70015;BME280;57358;51.094;6.760;2023-03-20T04:56:52;101416.44;;;5.91;100.00
70015;BME280;57358;51.094;6.760;2023-03-20T04:59:18;101467.97;;;6.19;100.00
70015;BME280;57358;51.094;6.760;2023-03-20T05:01:45;101379.59;;;5.68;100.00
70015;BME280;57358;51.094;6.760;2023-03-20T05:04:12;101375.25;;;5.68;100.00
70015;BME280;57358;51.094;6.760;2023-03-20T05:06:39;101453.28;;;6.15;100.00
70015;BME280;57358;51.094;6.760;2023-03-20T05:09:05;101341.84;;;5.47;100.00
70015;BME280;57358;51.094;6.760;2023-03-20T05:11:32;101413.88;;;5.90;100.00
70015;BME280;57358;51.094;6.760;2023-03-20T05:13:58;101460.31;;;6.11;100.00
70015;BME280;57358;51.094;6.760;2023-03-20T05:16:25;101378.00;;;5.60;100.00
70015;BME280;57358;51.094;6.760;2023-03-20T05:18:51;101409.00;;;5.73;100.00
70015;BME280;57358;51.094;6.760;2023-03-20T05:21:18;101187.84;;;4.42;100.00
70015;BME280;57358;51.094;6.760;2023-03-20T05:23:44;101427.78;;;5.87;100.00
70015;BME280;57358;51.094;6.760;2023-03-20T05:26:11;101276.88;;;4.98;100.00
70015;BME280;57358;51.094;6.760;2023-03-20T05:28:37;101307.00;;;5.10;100.00
70015;BME280;57358;51.094;6.760;2023-03-20T05:31:04;101266.69;;;4.89;100.00
70015;BME280;57358;51.094;6.760;2023-03-20T05:33:30;101254.75;;;4.77;100.00
70015;BME280;57358;51.094;6.760;2023-03-20T05:35:57;101347.28;;;5.34;100.00
70015;BME280;57358;51.094;6.760;2023-03-20T05:38:23;101426.13;;;5.85;100.00
70015;BME280;57358;51.094;6.760;2023-03-20T05:40:59;101416.63;;;5.82;100.00
70015;BME280;57358;51.094;6.760;2023-03-20T05:43:26;101432.13;;;5.88;100.00
70015;BME280;57358;51.094;6.760;2023-03-20T05:45:55;101461.50;;;5.98;100.00
70015;BME280;57358;51.094;6.760;2023-03-20T05:48:22;101439.16;;;5.83;100.00
70015;BME280;57358;51.094;6.760;2023-03-20T05:50:48;101360.13;;;5.44;100.00
70015;BME280;57358;51.094;6.760;2023-03-20T05:53:15;101452.75;;;5.99;100.00
70015;BME280;57358;51.094;6.760;2023-03-20T05:55:41;101440.00;;;5.85;100.00
70015;BME280;57358;51.094;6.760;2023-03-20T05:58:10;101474.41;;;6.03;100.00
70015;BME280;57358;51.094;6.760;2023-03-20T06:00:38;101424.56;;;5.76;100.00
70015;BME280;57358;51.094;6.760;2023-03-20T06:03:04;101469.97;;;6.08;100.00
70015;BME280;57358;51.094;6.760;2023-03-20T06:05:34;101464.72;;;6.09;100.00
70015;BME280;57358;51.094;6.760;2023-03-20T06:08:02;101420.09;;;5.83;100.00
70015;BME280;57358;51.094;6.760;2023-03-20T06:10:29;101432.00;;;5.94;100.00
70015;BME280;57358;51.094;6.760;2023-03-20T06:12:56;101464.50;;;6.20;100.00
70015;BME280;57358;51.094;6.760;2023-03-20T06:15:28;101455.09;;;6.11;100.00
70015;BME280;57358;51.094;6.760;2023-03-20T06:17:55;101476.47;;;6.29;100.00
70015;BME280;57358;51.094;6.760;2023-03-20T06:20:22;101476.31;;;6.35;100.00
70015;BME280;57358;51.094;6.760;2023-03-20T06:22:48;101431.50;;;6.19;100.00
70015;BME280;57358;51.094;6.760;2023-03-20T06:25:15;101470.84;;;6.47;100.00
70015;BME280;57358;51.094;6.760;2023-03-20T06:27:41;101417.59;;;6.20;100.00
70015;BME280;57358;51.094;6.760;2023-03-20T06:30:08;101385.84;;;6.01;100.00
70015;BME280;57358;51.094;6.760;2023-03-20T06:32:35;101449.13;;;6.47;100.00
70015;BME280;57358;51.094;6.760;2023-03-20T06:35:02;101446.38;;;6.53;100.00
70015;BME280;57358;51.094;6.760;2023-03-20T06:37:31;101471.16;;;6.71;100.00
70015;BME280;57358;51.094;6.760;2023-03-20T06:39:57;101476.25;;;6.75;100.00
70015;BME280;57358;51.094;6.760;2023-03-20T06:42:24;101343.34;;;5.99;100.00
70015;BME280;57358;51.094;6.760;2023-03-20T06:44:50;101363.91;;;6.11;100.00
70015;BME280;57358;51.094;6.760;2023-03-20T06:47:17;101343.13;;;6.08;100.00
70015;BME280;57358;51.094;6.760;2023-03-20T06:49:43;101469.97;;;6.84;100.00
70015;BME280;57358;51.094;6.760;2023-03-20T06:52:16;101396.28;;;6.40;100.00
70015;BME280;57358;51.094;6.760;2023-03-20T06:54:43;101447.44;;;6.82;100.00
70015;BME280;57358;51.094;6.760;2023-03-20T06:57:09;101486.13;;;7.00;100.00
70015;BME280;57358;51.094;6.760;2023-03-20T06:59:39;101485.25;;;6.99;100.00
70015;BME280;57358;51.094;6.760;2023-03-20T07:02:06;101498.84;;;7.14;100.00
70015;BME280;57358;51.094;6.760;2023-03-20T07:04:33;101484.50;;;6.96;100.00
70015;BME280;57358;51.094;6.760;2023-03-20T07:07:00;101509.19;;;7.17;100.00
70015;BME280;57358;51.094;6.760;2023-03-20T07:09:27;101491.69;;;7.21;100.00
70015;BME280;57358;51.094;6.760;2023-03-20T07:11:53;101491.66;;;7.22;100.00
70015;BME280;57358;51.094;6.760;2023-03-20T07:14:20;101513.69;;;7.46;100.00
70015;BME280;57358;51.094;6.760;2023-03-20T07:16:46;101517.28;;;7.41;100.00
70015;BME280;57358;51.094;6.760;2023-03-20T07:19:13;101521.34;;;7.52;100.00
70015;BME280;57358;51.094;6.760;2023-03-20T07:21:39;101499.09;;;7.37;100.00
70015;BME280;57358;51.094;6.760;2023-03-20T07:24:06;101501.75;;;7.36;100.00
70015;BME280;57358;51.094;6.760;2023-03-20T07:26:32;101532.44;;;7.61;100.00
70015;BME280;57358;51.094;6.760;2023-03-20T07:28:58;101371.16;;;6.72;100.00
70015;BME280;57358;51.094;6.760;2023-03-20T07:31:26;101533.03;;;7.72;100.00
70015;BME280;57358;51.094;6.760;2023-03-20T07:33:54;101532.88;;;7.78;100.00
70015;BME280;57358;51.094;6.760;2023-03-20T07:36:21;101525.41;;;7.64;100.00
70015;BME280;57358;51.094;6.760;2023-03-20T07:38:47;101517.44;;;7.69;100.00
70015;BME280;57358;51.094;6.760;2023-03-20T07:41:14;101525.06;;;7.76;100.00
70015;BME280;57358;51.094;6.760;2023-03-20T07:43:40;101498.28;;;7.68;100.00
70015;BME280;57358;51.094;6.760;2023-03-20T07:46:09;101514.13;;;7.93;100.00
70015;BME280;57358;51.094;6.760;2023-03-20T07:48:36;101525.31;;;7.98;100.00
70015;BME280;57358;51.094;6.760;2023-03-20T07:51:02;101495.28;;;7.82;100.00
70015;BME280;57358;51.094;6.760;2023-03-20T07:53:29;101495.59;;;8.03;100.00
70015;BME280;57358;51.094;6.760;2023-03-20T07:55:55;101523.25;;;8.41;100.00
70015;BME280;57358;51.094;6.760;2023-03-20T07:58:22;101519.78;;;8.39;100.00
70015;BME280;57358;51.094;6.760;2023-03-20T08:00:48;101511.53;;;8.54;100.00
70015;BME280;57358;51.094;6.760;2023-03-20T08:03:14;101389.59;;;7.92;100.00
70015;BME280;57358;51.094;6.760;2023-03-20T08:05:42;101443.94;;;8.39;100.00
70015;BME280;57358;51.094;6.760;2023-03-20T08:08:12;101456.72;;;8.50;100.00
70015;BME280;57358;51.094;6.760;2023-03-20T08:10:39;101479.69;;;8.68;100.00
70015;BME280;57358;51.094;6.760;2023-03-20T08:13:05;101464.13;;;8.64;100.00
70015;BME280;57358;51.094;6.760;2023-03-20T08:15:32;101468.88;;;8.79;100.00
70015;BME280;57358;51.094;6.760;2023-03-20T08:17:59;101439.13;;;8.55;100.00
70015;BME280;57358;51.094;6.760;2023-03-20T08:20:25;101460.97;;;8.81;100.00
70015;BME280;57358;51.094;6.760;2023-03-20T08:22:52;101414.19;;;8.70;97.42
70015;BME280;57358;51.094;6.760;2023-03-20T08:25:19;101431.66;;;8.96;95.87
70015;BME280;57358;51.094;6.760;2023-03-20T08:27:45;101429.34;;;9.13;94.09
70015;BME280;57358;51.094;6.760;2023-03-20T08:30:12;101421.94;;;9.26;92.16
70015;BME280;57358;51.094;6.760;2023-03-20T08:32:40;101408.44;;;9.37;90.65
70015;BME280;57358;51.094;6.760;2023-03-20T08:35:07;101373.81;;;9.29;88.92
70015;BME280;57358;51.094;6.760;2023-03-20T08:37:47;101333.50;;;8.84;88.09
70015;BME280;57358;51.094;6.760;2023-03-20T08:40:13;101362.84;;;9.17;87.22
70015;BME280;57358;51.094;6.760;2023-03-20T08:42:40;101343.31;;;9.03;85.67
70015;BME280;57358;51.094;6.760;2023-03-20T08:45:07;101334.22;;;9.13;86.28
70015;BME280;57358;51.094;6.760;2023-03-20T08:47:33;101335.59;;;9.23;84.86
70015;BME280;57358;51.094;6.760;2023-03-20T08:50:00;101339.19;;;9.44;84.20
70015;BME280;57358;51.094;6.760;2023-03-20T08:52:26;101261.91;;;8.85;82.18
70015;BME280;57358;51.094;6.760;2023-03-20T08:54:53;101321.84;;;9.40;83.27
70015;BME280;57358;51.094;6.760;2023-03-20T08:57:19;101332.88;;;9.72;82.93
70015;BME280;57358;51.094;6.760;2023-03-20T08:59:46;101264.19;;;9.42;80.51
70015;BME280;57358;51.094;6.760;2023-03-20T09:02:13;101282.97;;;9.53;80.05
70015;BME280;57358;51.094;6.760;2023-03-20T09:04:39;101218.38;;;9.06;80.92
70015;BME280;57358;51.094;6.760;2023-03-20T09:07:06;101293.25;;;9.57;80.55
70015;BME280;57358;51.094;6.760;2023-03-20T09:09:33;101317.16;;;9.72;81.33
70015;BME280;57358;51.094;6.760;2023-03-20T09:11:59;101258.94;;;9.42;79.70
70015;BME280;57358;51.094;6.760;2023-03-20T09:14:27;101254.69;;;9.39;79.81
70015;BME280;57358;51.094;6.760;2023-03-20T09:16:53;101276.13;;;9.49;79.70
70015;BME280;57358;51.094;6.760;2023-03-20T09:19:20;101265.41;;;9.55;78.48
70015;BME280;57358;51.094;6.760;2023-03-20T09:21:46;101272.25;;;9.81;79.34
70015;BME280;57358;51.094;6.760;2023-03-20T09:24:14;101082.28;;;8.83;78.14
70015;BME280;57358;51.094;6.760;2023-03-20T09:26:40;101159.44;;;9.18;77.24
70015;BME280;57358;51.094;6.760;2023-03-20T09:29:06;101255.13;;;9.94;77.47
70015;BME280;57358;51.094;6.760;2023-03-20T09:31:33;101271.28;;;10.26;77.25
70015;BME280;57358;51.094;6.760;2023-03-20T09:33:59;101230.31;;;10.24;75.97
70015;BME280;57358;51.094;6.760;2023-03-20T09:36:26;101181.50;;;9.78;74.76
70015;BME280;57358;51.094;6.760;2023-03-20T09:38:52;101211.34;;;9.96;75.68
70015;BME280;57358;51.094;6.760;2023-03-20T09:41:21;101204.84;;;10.05;75.52
70015;BME280;57358;51.094;6.760;2023-03-20T09:44:00;101141.03;;;9.64;74.63
70015;BME280;57358;51.094;6.760;2023-03-20T09:46:55;101173.19;;;9.89;74.87
70015;BME280;57358;51.094;6.760;2023-03-20T09:52:29;101042.38;;;9.42;70.40
70015;BME280;57358;51.094;6.760;2023-03-20T09:58:00;101152.63;;;10.01;72.42
70015;BME280;57358;51.094;6.760;2023-03-20T10:00:30;101113.75;;;10.10;70.21
70015;BME280;57358;51.094;6.760;2023-03-20T10:07:59;100989.38;;;10.35;66.00
70015;BME280;57358;51.094;6.760;2023-03-20T10:10:51;101006.34;;;10.26;65.77
70015;BME280;57358;51.094;6.760;2023-03-20T10:15:57;100971.03;;;9.76;65.95
70015;BME280;57358;51.094;6.760;2023-03-20T10:18:32;100980.56;;;9.77;66.31
70015;BME280;57358;51.094;6.760;2023-03-20T10:21:10;100970.44;;;9.70;66.32
70015;BME280;57358;51.094;6.760;2023-03-20T10:23:47;100981.69;;;9.72;66.30
70015;BME280;57358;51.094;6.760;2023-03-20T10:26:17;100966.13;;;9.69;66.51
70015;BME280;57358;51.094;6.760;2023-03-20T10:28:53;100934.78;;;9.66;65.15
70015;BME280;57358;51.094;6.760;2023-03-20T10:34:56;100961.06;;;10.04;65.46
70015;BME280;57358;51.094;6.760;2023-03-20T10:37:42;100972.25;;;10.26;65.23
70015;BME280;57358;51.094;6.760;2023-03-20T10:42:58;100840.84;;;9.18;64.90
70015;BME280;57358;51.094;6.760;2023-03-20T10:45:36;100979.00;;;9.73;67.30
70015;BME280;57358;51.094;6.760;2023-03-20T10:48:11;100994.50;;;9.98;67.91
70015;BME280;57358;51.094;6.760;2023-03-20T10:50:47;101007.09;;;10.30;66.64
70015;BME280;57358;51.094;6.760;2023-03-20T10:53:35;100963.94;;;9.97;65.92
70015;BME280;57358;51.094;6.760;2023-03-20T10:56:10;100991.72;;;10.02;67.21
70015;BME280;57358;51.094;6.760;2023-03-20T10:58:43;101001.94;;;10.08;67.66
70015;BME280;57358;51.094;6.760;2023-03-20T11:01:12;100956.16;;;9.96;66.90
70015;BME280;57358;51.094;6.760;2023-03-20T11:03:38;100934.66;;;9.69;66.89
70015;BME280;57358;51.094;6.760;2023-03-20T11:06:17;100943.31;;;9.71;67.23
70015;BME280;57358;51.094;6.760;2023-03-20T11:08:49;100961.38;;;9.77;68.45
70015;BME280;57358;51.094;6.760;2023-03-20T11:11:24;101008.84;;;10.10;68.21
70015;BME280;57358;51.094;6.760;2023-03-20T11:13:51;100990.50;;;9.71;69.20
70015;BME280;57358;51.094;6.760;2023-03-20T11:16:29;100984.78;;;9.61;68.99
70015;BME280;57358;51.094;6.760;2023-03-20T11:19:07;100992.00;;;9.76;69.02
70015;BME280;57358;51.094;6.760;2023-03-20T11:21:43;100931.75;;;9.35;69.15
70015;BME280;57358;51.094;6.760;2023-03-20T11:24:26;100988.31;;;9.60;69.61
70015;BME280;57358;51.094;6.760;2023-03-20T11:27:13;101038.38;;;9.74;71.05
70015;BME280;57358;51.094;6.760;2023-03-20T11:29:41;101056.28;;;10.04;70.85
70015;BME280;57358;51.094;6.760;2023-03-20T11:32:29;101000.03;;;9.92;70.37
70015;BME280;57358;51.094;6.760;2023-03-20T11:35:10;101058.97;;;10.23;71.22
70015;BME280;57358;51.094;6.760;2023-03-20T11:37:42;101013.81;;;9.56;71.38
70015;BME280;57358;51.094;6.760;2023-03-20T11:40:15;101029.59;;;9.34;72.93
70015;BME280;57358;51.094;6.760;2023-03-20T11:45:23;101097.00;;;9.51;75.35
70015;BME280;57358;51.094;6.760;2023-03-20T11:47:53;101133.97;;;9.66;76.98
70015;BME280;57358;51.094;6.760;2023-03-20T11:50:24;101092.72;;;9.28;76.87
70015;BME280;57358;51.094;6.760;2023-03-20T11:52:52;101075.88;;;9.12;77.85
70015;BME280;57358;51.094;6.760;2023-03-20T11:55:35;101169.66;;;9.90;79.06
70015;BME280;57358;51.094;6.760;2023-03-20T11:58:05;101091.59;;;9.76;76.52
70015;BME280;57358;51.094;6.760;2023-03-20T12:00:40;101085.56;;;9.74;74.80
70015;BME280;57358;51.094;6.760;2023-03-20T12:04:02;101076.31;;;9.23;76.20
70015;BME280;57358;51.094;6.760;2023-03-20T12:06:24;101077.16;;;8.79;78.03
70015;BME280;57358;51.094;6.760;2023-03-20T12:08:56;101179.91;;;9.08;81.57
70015;BME280;57358;51.094;6.760;2023-03-20T12:11:47;101204.88;;;9.17;83.38
70015;BME280;57358;51.094;6.760;2023-03-20T12:14:22;101148.00;;;8.98;82.78
70015;BME280;57358;51.094;6.760;2023-03-20T12:16:56;101173.03;;;9.28;83.07
70015;BME280;57358;51.094;6.760;2023-03-20T12:19:27;101166.81;;;9.08;82.23
70015;BME280;57358;51.094;6.760;2023-03-20T12:22:06;101184.63;;;8.98;82.87
70015;BME280;57358;51.094;6.760;2023-03-20T12:24:50;101212.22;;;9.07;83.87
70015;BME280;57358;51.094;6.760;2023-03-20T12:27:27;101222.13;;;8.99;83.91
70015;BME280;57358;51.094;6.760;2023-03-20T12:32:33;101240.53;;;9.43;84.27
70015;BME280;57358;51.094;6.760;2023-03-20T12:35:15;101227.94;;;9.75;81.44
70015;BME280;57358;51.094;6.760;2023-03-20T12:37:44;101160.31;;;9.41;81.21
70015;BME280;57358;51.094;6.760;2023-03-20T12:40:15;101229.03;;;9.91;80.64
70015;BME280;57358;51.094;6.760;2023-03-20T12:43:00;101201.25;;;9.65;81.45
70015;BME280;57358;51.094;6.760;2023-03-20T12:45:39;101225.34;;;9.95;81.91
70015;BME280;57358;51.094;6.760;2023-03-20T12:51:11;101196.31;;;10.00;80.45
70015;BME280;57358;51.094;6.760;2023-03-20T13:02:25;101136.97;;;10.18;77.65
70015;BME280;57358;51.094;6.760;2023-03-20T13:05:07;101187.91;;;10.55;78.75
70015;BME280;57358;51.094;6.760;2023-03-20T13:10:23;101087.06;;;10.01;75.34
70015;BME280;57358;51.094;6.760;2023-03-20T13:13:09;101158.19;;;10.34;77.54
70015;BME280;57358;51.094;6.760;2023-03-20T13:15:48;101146.56;;;10.40;77.40
70015;BME280;57358;51.094;6.760;2023-03-20T13:21:09;101148.03;;;10.47;77.81
70015;BME280;57358;51.094;6.760;2023-03-20T13:29:29;101134.00;;;10.86;75.96
70015;BME280;57358;51.094;6.760;2023-03-20T13:35:14;101108.94;;;10.97;74.26
70015;BME280;57358;51.094;6.760;2023-03-20T13:37:45;101043.34;;;10.60;73.55
70015;BME280;57358;51.094;6.760;2023-03-20T13:43:22;101130.56;;;11.22;73.29
70015;BME280;57358;51.094;6.760;2023-03-20T13:45:57;101069.66;;;10.77;72.37
70015;BME280;57358;51.094;6.760;2023-03-20T13:48:33;101079.22;;;10.97;73.83
70015;BME280;57358;51.094;6.760;2023-03-20T13:56:39;101012.22;;;10.88;71.87
70015;BME280;57358;51.094;6.760;2023-03-20T14:02:26;101066.50;;;11.24;71.95
70015;BME280;57358;51.094;6.760;2023-03-20T14:05:10;101046.72;;;11.34;71.27
70015;BME280;57358;51.094;6.760;2023-03-20T14:07:42;101035.44;;;11.32;71.09
70015;BME280;57358;51.094;6.760;2023-03-20T14:12:52;101038.59;;;11.56;70.14
70015;BME280;57358;51.094;6.760;2023-03-20T14:15:20;101012.44;;;11.37;70.44
70015;BME280;57358;51.094;6.760;2023-03-20T14:17:49;101037.63;;;11.42;70.62
70015;BME280;57358;51.094;6.760;2023-03-20T14:20:27;101030.25;;;11.48;70.44
70015;BME280;57358;51.094;6.760;2023-03-20T14:22:56;101016.28;;;11.48;69.95
70015;BME280;57358;51.094;6.760;2023-03-20T14:25:23;100961.19;;;10.94;69.96
70015;BME280;57358;51.094;6.760;2023-03-20T14:28:06;100970.91;;;10.74;70.69
70015;BME280;57358;51.094;6.760;2023-03-20T14:35:44;101027.72;;;10.37;74.34
70015;BME280;57358;51.094;6.760;2023-03-20T14:39:19;101023.63;;;10.32;74.46
70015;BME280;57358;51.094;6.760;2023-03-20T14:44:18;101031.00;;;10.43;75.28
70015;BME280;57358;51.094;6.760;2023-03-20T14:50:04;101066.94;;;10.60;75.76
70015;BME280;57358;51.094;6.760;2023-03-20T14:52:44;101081.78;;;10.61;76.89
70015;BME280;57358;51.094;6.760;2023-03-20T14:55:28;101063.72;;;10.54;76.85
70015;BME280;57358;51.094;6.760;2023-03-20T14:58:04;101064.56;;;10.55;78.84